Time;durP1;ratioP1;P1;durP2;ratioP2;P2;SDS_P1;SDS_P2;PMS_P1;PMS_P2;Temp;Humidity;BMP_temperature;BMP_pressure;BME280_temperature;BME280_humidity;BME280_pressure;Samples;Min_cycle;Max_cycle;Signal;HPM_P1;HPM_P2
2021/11/30 00:00:07;;;;;;;19.65;14.38;;;;;;;9.65;96.17;98025.28;1744388;82;21308;-80
2021/11/30 00:03:12;;;;;;;18.67;13.05;;;;;;;9.64;96.73;98029.04;1739293;82;21906;-80
2021/11/30 00:06:19;;;;;;;20.55;12.58;;;;;;;9.66;97.35;98030.50;1731864;82;21303;-79
2021/11/30 00:12:38;;;;;;;19.45;12.45;;;;;;;9.64;96.58;98050.87;1732206;82;21308;-79
2021/11/30 00:15:44;;;;;;;19.98;12.40;;;;;;;9.59;95.43;98063.83;1731857;82;21323;-79
2021/11/30 00:18:50;;;;;;;14.40;11.57;;;;;;;9.50;94.36;98072.00;1732783;82;21233;-80
2021/11/30 00:21:57;;;;;;;15.58;10.55;;;;;;;9.39;93.33;98070.84;1732656;82;21245;-79
2021/11/30 00:25:02;;;;;;;14.93;11.68;;;;;;;9.26;93.03;98068.22;1729902;82;21148;-80
2021/11/30 00:28:10;;;;;;;18.45;11.55;;;;;;;9.16;93.12;98070.61;1719939;83;21320;-79
2021/11/30 00:31:15;;;;;;;16.37;11.20;;;;;;;9.05;92.79;98074.06;1720648;83;21299;-80
2021/11/30 00:34:20;;;;;;;15.93;12.03;;;;;;;8.96;92.66;98074.85;1719816;83;21216;-79
2021/11/30 00:37:26;;;;;;;16.32;11.95;;;;;;;8.86;93.05;98070.42;1720158;83;21314;-79
2021/11/30 00:40:33;;;;;;;15.10;12.82;;;;;;;8.81;93.49;98080.62;1725956;82;21324;-80
2021/11/30 00:43:40;;;;;;;17.35;12.63;;;;;;;8.78;93.72;98091.95;1731857;82;21225;-81
2021/11/30 00:46:49;;;;;;;18.75;13.43;;;;;;;8.74;93.79;98092.08;1733183;82;21421;-81
2021/11/30 00:49:55;;;;;;;18.57;12.03;;;;;;;8.68;93.85;98106.05;1731811;82;21776;-80
2021/11/30 00:53:02;;;;;;;18.45;13.48;;;;;;;8.66;94.27;98119.60;1732276;82;21260;-79
2021/11/30 00:56:08;;;;;;;19.05;13.65;;;;;;;8.62;94.64;98129.27;1732997;82;21312;-79
2021/11/30 00:59:13;;;;;;;18.42;11.95;;;;;;;8.59;95.16;98139.22;1733162;82;22381;-79
2021/11/30 01:02:20;;;;;;;14.33;10.85;;;;;;;8.56;95.27;98150.54;1701873;82;21233;-80
2021/11/30 01:05:26;;;;;;;14.73;11.30;;;;;;;8.50;94.54;98165.03;1732625;82;21975;-79
2021/11/30 01:08:32;;;;;;;15.80;11.00;;;;;;;8.45;93.85;98171.96;1733125;82;21368;-79
2021/11/30 01:11:38;;;;;;;12.73;8.70;;;;;;;8.37;92.20;98185.81;1733339;82;21836;-80
2021/11/30 01:14:44;;;;;;;13.22;6.58;;;;;;;8.25;90.00;98192.12;1710087;84;21183;-80
2021/11/30 01:17:50;;;;;;;10.05;6.95;;;;;;;8.16;87.84;98203.75;1711684;84;21363;-80
2021/11/30 01:20:55;;;;;;;8.28;6.47;;;;;;;8.08;87.31;98209.41;1711639;84;21326;-80
2021/11/30 01:24:02;;;;;;;13.20;8.00;;;;;;;8.03;87.48;98217.37;1710072;84;21909;-80
2021/11/30 01:27:07;;;;;;;12.82;8.80;;;;;;;7.98;87.57;98223.45;1672334;85;21330;-79
2021/11/30 01:30:14;;;;;;;12.85;8.60;;;;;;;7.94;87.45;98220.84;1672601;85;21323;-80
2021/11/30 01:33:20;;;;;;;14.20;8.93;;;;;;;7.89;87.32;98227.44;1673676;85;21904;-80
2021/11/30 01:36:26;;;;;;;16.32;8.00;;;;;;;7.84;87.71;98230.78;1673782;85;21204;-80
2021/11/30 01:39:32;;;;;;;8.93;7.30;;;;;;;7.83;87.88;98247.33;1675324;82;21374;-80
2021/11/30 01:42:42;;;;;;;11.18;7.55;;;;;;;7.81;88.22;98252.13;1711144;84;21350;-80
2021/11/30 01:52:17;;;;;;;12.07;6.80;;;;;;;7.61;88.08;98274.72;1711213;84;21310;-80
2021/11/30 01:55:24;;;;;;;10.85;7.30;;;;;;;7.55;88.32;98270.12;1711471;84;21299;-80
2021/11/30 01:58:30;;;;;;;11.18;7.30;;;;;;;7.46;88.75;98269.99;1711517;84;21818;-80
2021/11/30 02:01:35;;;;;;;14.85;7.25;;;;;;;7.38;88.93;98273.73;1711419;84;21845;-80
2021/11/30 02:04:42;;;;;;;9.98;7.15;;;;;;;7.25;87.98;98275.08;1710120;84;21350;-80
2021/11/30 02:07:48;;;;;;;10.70;7.30;;;;;;;7.12;87.91;98284.02;1737870;82;21768;-80
2021/11/30 02:10:56;;;;;;;10.32;7.10;;;;;;;7.02;87.75;98294.96;1749868;81;21334;-80
2021/11/30 02:14:02;;;;;;;9.23;6.62;;;;;;;6.91;87.76;98299.91;1736252;82;21483;-80
2021/11/30 02:17:09;;;;;;;8.88;6.28;;;;;;;6.80;87.69;98302.37;1710831;84;21360;-80
2021/11/30 02:20:16;;;;;;;13.65;6.92;;;;;;;6.70;87.76;98305.45;1736296;82;21909;-80
2021/11/30 02:26:41;;;;;;;8.93;6.40;;;;;;;6.58;88.46;98305.16;1677925;83;21272;-80
2021/11/30 02:29:46;;;;;;;9.43;6.25;;;;;;;6.53;88.82;98320.38;1712482;83;21228;-79
2021/11/30 02:32:53;;;;;;;11.20;6.78;;;;;;;6.47;88.93;98333.41;1737028;82;21264;-79
2021/11/30 02:35:58;;;;;;;9.15;5.87;;;;;;;6.43;89.22;98337.03;1737568;82;21208;-79
2021/11/30 02:39:06;;;;;;;10.68;6.40;;;;;;;6.38;89.25;98338.98;1740332;81;21762;-79
2021/11/30 02:42:14;;;;;;;12.88;6.45;;;;;;;6.33;89.00;98335.19;1737442;82;21323;-79
2021/11/30 02:45:19;;;;;;;9.60;6.75;;;;;;;6.24;88.49;98330.41;1737665;82;21192;-79
2021/11/30 02:48:25;;;;;;;10.63;6.83;;;;;;;6.17;88.46;98335.48;1738762;82;21686;-80
2021/11/30 02:51:32;;;;;;;11.83;6.47;;;;;;;6.12;88.52;98342.86;1710286;83;21370;-80
2021/11/30 02:54:38;;;;;;;10.03;6.20;;;;;;;6.06;88.65;98345.81;1712709;82;21217;-80
2021/11/30 02:57:43;;;;;;;10.18;6.03;;;;;;;5.99;88.09;98355.78;1740649;82;21319;-79
2021/11/30 03:00:49;;;;;;;11.83;6.35;;;;;;;5.92;87.97;98367.59;1740487;82;21831;-79
2021/11/30 03:03:58;;;;;;;9.68;6.62;;;;;;;5.83;87.68;98364.13;1740094;82;21338;-79
2021/11/30 03:07:05;;;;;;;10.38;6.78;;;;;;;5.72;87.29;98372.80;1731329;82;21265;-79
2021/11/30 03:10:13;;;;;;;7.08;5.40;;;;;;;5.57;87.17;98372.33;1700479;84;21318;-80
2021/11/30 03:13:19;;;;;;;8.25;5.80;;;;;;;5.47;87.41;98368.25;1703399;84;21848;-79
2021/11/30 03:16:26;;;;;;;18.70;7.05;;;;;;;5.37;87.43;98361.77;1703052;84;21293;-79
2021/11/30 03:19:34;;;;;;;10.72;6.30;;;;;;;5.27;87.75;98366.62;1704021;84;21792;-79
2021/11/30 03:22:39;;;;;;;7.92;5.25;;;;;;;5.16;87.97;98369.31;1703722;84;21773;-79
2021/11/30 03:25:45;;;;;;;8.83;5.90;;;;;;;5.07;88.35;98377.22;1714402;83;21205;-81
2021/11/30 03:28:50;;;;;;;10.20;6.35;;;;;;;4.96;88.99;98381.25;1725969;83;21328;-81
2021/11/30 03:35:09;;;;;;;9.63;6.70;;;;;;;4.74;89.60;98395.20;1692675;82;21917;-79
2021/11/30 03:38:16;;;;;;;10.50;7.60;;;;;;;4.63;88.70;98394.84;1725941;83;21331;-80
2021/11/30 03:41:22;;;;;;;9.88;7.28;;;;;;;4.52;88.87;98398.84;1731344;83;21312;-79
2021/11/30 03:44:27;;;;;;;13.13;7.42;;;;;;;4.41;89.19;98410.94;1710856;84;21196;-79
2021/11/30 03:47:32;;;;;;;13.38;6.87;;;;;;;4.32;89.47;98411.52;1711280;84;21192;-79
2021/11/30 03:50:38;;;;;;;10.65;7.92;;;;;;;4.28;89.53;98422.41;1711236;84;21303;-79
2021/11/30 03:53:43;;;;;;;12.85;8.13;;;;;;;4.22;89.66;98429.88;1711401;84;21232;-79
2021/11/30 03:56:48;;;;;;;11.25;8.58;;;;;;;4.14;89.93;98434.50;1676889;84;21850;-80
2021/11/30 03:59:54;;;;;;;12.28;8.75;;;;;;;4.08;90.18;98446.90;1697139;84;21215;-80
2021/11/30 04:02:59;;;;;;;11.15;8.25;;;;;;;4.00;90.28;98450.52;1707908;84;21940;-80
2021/11/30 04:06:06;;;;;;;10.78;7.90;;;;;;;3.95;90.32;98449.35;1708202;84;21385;-80
2021/11/30 04:09:11;;;;;;;12.13;8.70;;;;;;;3.91;90.46;98456.17;1721968;83;21351;-80
2021/11/30 04:12:17;;;;;;;11.65;8.20;;;;;;;3.84;90.77;98473.09;1725743;83;21842;-80
2021/11/30 04:15:22;;;;;;;10.98;8.65;;;;;;;3.80;90.96;98472.27;1725239;83;21188;-80
2021/11/30 04:18:28;;;;;;;13.53;9.20;;;;;;;3.75;91.15;98482.27;1726269;83;21322;-80
2021/11/30 04:21:34;;;;;;;13.90;9.30;;;;;;;3.70;91.31;98484.66;1724813;83;21522;-80
2021/11/30 04:24:41;;;;;;;11.28;8.95;;;;;;;3.66;91.67;98493.30;1727622;81;21259;-80
2021/11/30 04:27:47;;;;;;;10.65;8.55;;;;;;;3.62;92.04;98491.45;1772505;81;21254;-80
2021/11/30 04:30:52;;;;;;;11.88;8.80;;;;;;;3.54;92.40;98498.27;1772517;81;21341;-80
2021/11/30 04:33:59;;;;;;;11.25;8.70;;;;;;;3.49;92.24;98496.09;1772332;81;21301;-80
2021/11/30 04:37:04;;;;;;;11.40;8.35;;;;;;;3.40;92.19;98505.25;1771895;81;21333;-79
2021/11/30 04:40:11;;;;;;;12.05;8.10;;;;;;;3.31;91.92;98511.19;1762702;81;21912;-79
2021/11/30 04:43:18;;;;;;;12.18;7.70;;;;;;;3.24;91.59;98512.88;1736493;81;21303;-79
2021/11/30 04:46:30;;;;;;;13.60;8.70;;;;;;;3.17;91.43;98517.31;1720070;83;21235;-79
2021/11/30 04:49:57;;;;;;;11.70;9.05;;;;;;;3.07;91.53;98520.20;1748625;81;21879;-79
2021/11/30 04:53:00;;;;;;;13.38;9.08;;;;;;;3.01;91.25;98512.80;1742055;82;21441;-79
2021/11/30 04:56:08;;;;;;;12.90;9.70;;;;;;;2.94;91.15;98503.69;1768359;80;21627;-80
2021/11/30 04:59:17;;;;;;;13.98;9.85;;;;;;;2.89;91.04;98504.70;1771734;81;21204;-81
2021/11/30 05:02:22;;;;;;;10.80;8.90;;;;;;;2.83;91.25;98509.96;1767898;81;21323;-81
2021/11/30 05:05:28;;;;;;;14.20;9.33;;;;;;;2.76;91.49;98512.48;1760701;81;21339;-81
2021/11/30 05:08:34;;;;;;;15.03;10.23;;;;;;;2.71;91.75;98515.69;1759178;80;22023;-80
2021/11/30 05:11:39;;;;;;;16.55;10.85;;;;;;;2.69;91.68;98516.38;1767222;81;21300;-79
2021/11/30 05:14:45;;;;;;;12.95;9.88;;;;;;;2.67;91.64;98523.79;1754784;81;21304;-79
2021/11/30 05:17:51;;;;;;;15.05;10.20;;;;;;;2.64;91.80;98526.01;1738631;82;21315;-79
2021/11/30 05:20:59;;;;;;;15.55;11.12;;;;;;;2.63;91.82;98527.83;1738991;82;21217;-79
2021/11/30 05:24:05;;;;;;;15.70;9.75;;;;;;;2.63;91.90;98545.89;1737668;82;21374;-80
2021/11/30 05:27:12;;;;;;;15.83;10.32;;;;;;;2.65;92.01;98557.38;1766561;81;21358;-80
2021/11/30 05:30:21;;;;;;;20.57;10.72;;;;;;;2.68;92.07;98545.75;1760360;81;21189;-80
2021/11/30 05:33:26;;;;;;;15.35;11.12;;;;;;;2.73;92.00;98547.43;1764478;81;21371;-80
2021/11/30 05:36:32;;;;;;;15.48;10.45;;;;;;;2.75;91.77;98552.14;1756196;81;21842;-80
2021/11/30 05:39:39;;;;;;;13.32;10.32;;;;;;;2.77;91.60;98568.16;1753957;81;21599;-80
2021/11/30 05:42:46;;;;;;;12.65;10.10;;;;;;;2.76;91.66;98563.78;1757381;80;21291;-80
2021/11/30 05:45:52;;;;;;;13.48;10.18;;;;;;;2.78;91.58;98559.91;1754227;81;21244;-80
2021/11/30 05:48:58;;;;;;;16.57;10.85;;;;;;;2.80;91.46;98578.64;1734279;82;21182;-80
2021/11/30 05:52:02;;;;;;;14.65;11.57;;;;;;;2.80;91.60;98583.52;1755105;81;21264;-80
2021/11/30 05:55:08;;;;;;;15.98;12.25;;;;;;;2.83;91.67;98582.36;1722500;81;21744;-79
2021/11/30 05:58:13;;;;;;;14.07;10.60;;;;;;;2.85;91.37;98591.63;1759247;81;21561;-80
2021/11/30 06:01:28;;;;;;;15.28;10.85;;;;;;;2.86;91.23;98587.91;1754151;81;21378;-80
2021/11/30 06:04:33;;;;;;;14.45;10.50;;;;;;;2.85;91.12;98585.72;1759227;81;21333;-80
2021/11/30 06:07:38;;;;;;;15.10;11.18;;;;;;;2.84;91.02;98607.50;1726286;82;21660;-81
2021/11/30 06:10:47;;;;;;;20.27;11.95;;;;;;;2.83;91.22;98611.22;1756466;81;21770;-80
2021/11/30 06:13:52;;;;;;;13.78;10.18;;;;;;;2.83;91.09;98608.52;1725748;81;21816;-78
2021/11/30 06:17:01;;;;;;;12.23;9.00;;;;;;;2.79;91.05;98614.25;1747023;81;21338;-81
2021/11/30 06:20:07;;;;;;;12.65;9.65;;;;;;;2.74;91.17;98621.17;1771525;79;21157;-79
2021/11/30 06:23:14;;;;;;;16.27;10.43;;;;;;;2.70;91.65;98617.95;1745717;79;21169;-80
2021/11/30 06:26:20;;;;;;;14.60;10.10;;;;;;;2.71;92.00;98632.30;1747821;81;21287;-80
2021/11/30 06:29:24;;;;;;;17.30;11.20;;;;;;;2.72;92.43;98638.02;1787118;79;21271;-81
2021/11/30 06:32:30;;;;;;;14.68;10.15;;;;;;;2.73;92.74;98632.48;1745640;80;21252;-79
2021/11/30 06:35:37;;;;;;;13.35;8.83;;;;;;;2.79;93.12;98627.75;1782972;78;21317;-81
2021/11/30 06:38:46;;;;;;;13.43;10.00;;;;;;;2.90;93.38;98624.38;1783543;78;21162;-81
2021/11/30 06:41:52;;;;;;;11.43;9.55;;;;;;;2.97;93.26;98625.41;1784511;79;21534;-80
2021/11/30 06:44:58;;;;;;;12.55;9.63;;;;;;;3.06;93.25;98615.77;1779440;79;21612;-80
2021/11/30 06:48:13;;;;;;;13.85;9.73;;;;;;;3.13;92.87;98617.28;1782012;78;21260;-79
2021/11/30 06:51:26;;;;;;;13.40;9.40;;;;;;;3.20;92.73;98615.59;1796165;79;21264;-80
2021/11/30 06:54:57;;;;;;;12.23;10.23;;;;;;;3.27;92.25;98621.15;1720575;81;21276;-80
2021/11/30 06:58:02;;;;;;;12.63;9.40;;;;;;;3.33;91.40;98625.34;1786784;78;21294;-82
2021/11/30 07:01:12;;;;;;;16.07;9.08;;;;;;;3.40;91.08;98624.17;1790582;79;21846;-82
2021/11/30 07:04:22;;;;;;;11.80;8.55;;;;;;;3.46;90.63;98623.48;1788097;79;21339;-81
2021/11/30 07:11:07;;;;;;;14.60;10.15;;;;;;;3.54;89.17;98638.85;1743615;80;22309;-80
2021/11/30 07:14:26;;;;;;;11.93;8.98;;;;;;;3.56;88.85;98645.76;1720062;82;21275;-80
2021/11/30 07:17:33;;;;;;;17.42;9.85;;;;;;;3.62;88.08;98656.89;1727724;81;21276;-80
2021/11/30 07:20:40;;;;;;;12.33;9.15;;;;;;;3.66;87.61;98669.90;1785716;78;21205;-80
2021/11/30 07:23:46;;;;;;;11.70;9.68;;;;;;;3.75;87.61;98680.20;1782386;79;21121;-81
2021/11/30 07:26:52;;;;;;;13.22;9.33;;;;;;;3.80;87.31;98680.01;1789586;78;21898;-81
2021/11/30 07:30:01;;;;;;;12.73;9.03;;;;;;;3.85;87.07;98688.45;1741492;80;21372;-79
2021/11/30 07:33:09;;;;;;;14.85;9.68;;;;;;;3.85;86.17;98693.86;1737059;80;21717;-83
2021/11/30 07:36:17;;;;;;;11.85;8.73;;;;;;;3.89;86.29;98700.28;1784639;78;21315;-81
2021/11/30 07:39:23;;;;;;;15.72;9.48;;;;;;;3.90;86.34;98704.67;1779413;79;21197;-80
2021/11/30 07:42:31;;;;;;;12.63;7.78;;;;;;;3.90;86.01;98700.09;1763703;79;21794;-80
2021/11/30 07:45:36;;;;;;;10.70;8.20;;;;;;;3.99;86.11;98686.05;1780033;79;21463;-80
2021/11/30 07:48:41;;;;;;;14.20;8.90;;;;;;;4.08;85.80;98688.55;1782242;79;21176;-81
2021/11/30 07:51:51;;;;;;;10.30;7.65;;;;;;;4.17;85.26;98673.13;1782545;79;21208;-85
2021/11/30 07:55:13;;;;;;;15.65;10.00;;;;;;;4.21;84.34;98665.00;1771821;79;22665;-79
2021/11/30 07:58:19;;;;;;;13.95;8.45;;;;;;;4.29;84.45;98665.48;1783628;79;21319;-78
2021/11/30 08:01:25;;;;;;;13.28;9.05;;;;;;;4.35;83.81;98665.61;1784911;79;21300;-80
2021/11/30 08:04:39;;;;;;;17.23;9.03;;;;;;;4.40;82.66;98667.79;1654966;85;21740;-80
2021/11/30 08:07:46;;;;;;;13.78;8.45;;;;;;;4.39;82.48;98649.86;1688456;83;21314;-79
2021/11/30 08:10:53;;;;;;;13.18;9.18;;;;;;;4.41;82.34;98646.45;1691854;83;21828;-81
2021/11/30 08:13:58;;;;;;;12.98;7.30;;;;;;;4.46;82.21;98647.28;1692030;83;21321;-79
2021/11/30 08:17:09;;;;;;;15.85;8.60;;;;;;;4.49;81.46;98654.55;1683484;83;21231;-80
2021/11/30 08:20:48;;;;;;;11.12;8.63;;;;;;;4.55;81.55;98654.34;1708634;83;21107;-83
2021/11/30 08:24:01;;;;;;;12.98;8.20;;;;;;;4.64;80.30;98647.02;1820732;76;22686;-84
2021/11/30 08:27:14;;;;;;;8.35;5.70;;;;;;;4.63;79.42;98666.48;1776379;79;21298;-89
2021/11/30 08:30:19;;;;;;;12.82;7.60;;;;;;;4.67;79.57;98672.39;1779597;79;21289;-83
2021/11/30 08:33:26;;;;;;;10.13;7.55;;;;;;;4.69;79.34;98663.56;1775577;79;21608;-83
2021/11/30 08:36:32;;;;;;;11.95;7.37;;;;;;;4.69;78.11;98660.86;1775777;79;21278;-85
2021/11/30 08:39:37;;;;;;;11.20;6.15;;;;;;;4.70;78.46;98652.55;1775661;79;21172;-83
2021/11/30 08:42:43;;;;;;;9.80;7.25;;;;;;;4.78;78.57;98642.17;1776466;79;21309;-83
2021/11/30 08:45:49;;;;;;;9.40;6.92;;;;;;;4.82;78.48;98638.93;1768989;79;21287;-81
2021/11/30 08:48:54;;;;;;;10.72;7.28;;;;;;;4.90;78.38;98639.39;1774401;79;21798;-83
2021/11/30 08:52:05;;;;;;;10.68;7.00;;;;;;;4.94;77.57;98638.02;1782835;79;21140;-82
2021/11/30 08:55:11;;;;;;;8.73;6.67;;;;;;;5.00;77.21;98640.50;1779949;79;21172;-84
2021/11/30 08:58:17;;;;;;;10.53;7.58;;;;;;;5.04;76.94;98629.13;1779750;79;21367;-84
2021/11/30 09:01:22;;;;;;;12.23;7.78;;;;;;;5.10;76.24;98625.67;1775931;79;21278;-80
2021/11/30 09:04:29;;;;;;;9.95;6.85;;;;;;;5.09;75.21;98625.34;1781159;79;21568;-83
2021/11/30 09:07:33;;;;;;;10.55;6.55;;;;;;;5.05;75.45;98627.25;1779282;79;21323;-85
2021/11/30 09:10:39;;;;;;;9.48;6.90;;;;;;;5.07;75.69;98627.38;1776986;79;21307;-83
2021/11/30 09:13:45;;;;;;;10.58;7.75;;;;;;;5.11;75.26;98638.70;1776848;79;21335;-84
2021/11/30 09:16:51;;;;;;;9.63;6.53;;;;;;;5.15;75.37;98629.70;1780105;79;21244;-81
2021/11/30 09:19:57;;;;;;;12.43;8.00;;;;;;;5.17;74.51;98630.35;1773509;79;21359;-88
2021/11/30 09:23:03;;;;;;;9.23;6.83;;;;;;;5.22;75.00;98632.00;1774318;79;21201;-83
2021/11/30 09:26:10;;;;;;;12.10;7.83;;;;;;;5.30;75.01;98631.94;1760331;79;22225;-82
2021/11/30 09:29:14;;;;;;;12.88;7.95;;;;;;;5.36;74.92;98632.55;1762976;79;21335;-79
2021/11/30 09:32:24;;;;;;;12.18;7.58;;;;;;;5.40;74.28;98627.09;1762372;79;21697;-78
2021/11/30 09:35:29;;;;;;;;;;;;;;;5.43;73.48;98629.45;1764251;79;21683;-78
2021/11/30 09:38:38;;;;;;;12.07;7.00;;;;;;;5.48;73.91;98646.52;1756252;79;20238;-77
2021/11/30 09:41:43;;;;;;;13.40;7.37;;;;;;;5.53;73.72;98627.30;1762709;79;21315;-77
2021/11/30 09:44:50;;;;;;;11.25;7.08;;;;;;;5.62;73.60;98618.58;1763482;79;21941;-78
2021/11/30 09:47:55;;;;;;;15.18;7.35;;;;;;;5.69;73.68;98613.23;1763111;80;21984;-77
2021/11/30 09:51:01;;;;;;;10.70;8.20;;;;;;;5.74;73.46;98619.81;1764874;79;21702;-78
2021/11/30 09:54:07;;;;;;;12.03;8.23;;;;;;;5.83;73.21;98608.33;1761993;79;21951;-79
2021/11/30 09:57:14;;;;;;;15.58;9.88;;;;;;;5.92;73.71;98607.23;1763746;79;21296;-79
2021/11/30 10:00:20;;;;;;;11.90;8.03;;;;;;;6.03;73.04;98601.87;1766140;79;21274;-80
2021/11/30 10:03:28;;;;;;;11.68;7.75;;;;;;;6.05;72.24;98593.01;1765046;79;21978;-80
2021/11/30 10:06:37;;;;;;;12.28;7.47;;;;;;;6.02;72.21;98582.03;1765166;80;21285;-78
2021/11/30 10:09:49;;;;;;;10.28;6.60;;;;;;;6.00;72.12;98562.88;1763983;79;21258;-81
2021/11/30 10:13:03;;;;;;;11.08;7.50;;;;;;;5.97;72.02;98556.47;1759739;79;21662;-80
2021/11/30 10:16:12;;;;;;;11.80;6.92;;;;;;;5.98;71.89;98548.16;1758232;80;21213;-78
2021/11/30 10:19:18;;;;;;;10.08;6.45;;;;;;;6.06;71.29;98558.05;1758204;79;21907;-79
2021/11/30 10:22:42;;;;;;;9.85;6.55;;;;;;;6.11;70.66;98553.72;1764260;80;21258;-79
2021/11/30 10:25:49;;;;;;;11.70;7.12;;;;;;;6.20;71.02;98546.31;1760968;80;21610;-78
2021/11/30 10:29:05;;;;;;;12.00;6.95;;;;;;;6.30;70.86;98556.86;1757700;80;22079;-80
2021/11/30 10:32:11;;;;;;;8.35;6.10;;;;;;;6.34;70.77;98559.52;1755586;80;21730;-78
2021/11/30 10:35:17;;;;;;;8.28;6.33;;;;;;;6.42;71.27;98564.00;1763868;80;21607;-78
2021/11/30 10:38:22;;;;;;;10.35;7.50;;;;;;;6.45;70.69;98564.98;1760497;80;21181;-79
2021/11/30 10:41:33;;;;;;;12.37;7.03;;;;;;;6.36;69.63;98561.02;1758410;80;21608;-79
2021/11/30 10:44:39;;;;;;;12.53;7.30;;;;;;;6.35;69.53;98561.20;1763914;80;21202;-78
2021/11/30 10:47:45;;;;;;;11.93;7.15;;;;;;;6.35;69.31;98562.06;1762376;80;21386;-77
2021/11/30 10:50:56;;;;;;;10.58;6.92;;;;;;;6.38;69.88;98571.17;1718639;80;21260;-79
2021/11/30 10:54:06;;;;;;;11.75;8.10;;;;;;;6.35;69.57;98565.27;1761684;79;21328;-79
2021/11/30 10:57:11;;;;;;;10.20;6.67;;;;;;;6.34;70.09;98569.02;1762632;80;21165;-77
2021/11/30 11:00:29;;;;;;;10.13;6.55;;;;;;;6.41;71.00;98556.38;1763702;80;21463;-78
2021/11/30 11:03:33;;;;;;;9.80;6.95;;;;;;;6.43;70.57;98557.02;1766242;80;21896;-78
2021/11/30 11:06:39;;;;;;;10.18;7.47;;;;;;;6.45;70.67;98555.48;1764460;80;21820;-79
2021/11/30 11:09:50;;;;;;;9.93;6.58;;;;;;;6.48;70.23;98556.44;1761744;79;21306;-80
2021/11/30 11:12:56;;;;;;;10.72;7.17;;;;;;;6.53;69.93;98558.89;1765231;80;21485;-84
2021/11/30 11:16:04;;;;;;;8.05;6.03;;;;;;;6.59;69.53;98551.87;1751437;80;21551;-84
2021/11/30 11:19:12;;;;;;;10.85;7.00;;;;;;;6.58;69.04;98544.21;1750652;80;21184;-83
2021/11/30 11:22:24;;;;;;;10.48;7.28;;;;;;;6.51;68.03;98541.96;1747786;80;21809;-85
2021/11/30 11:25:38;;;;;;;12.40;6.92;;;;;;;6.37;68.51;98531.47;1750144;80;22242;-84
2021/11/30 11:28:43;;;;;;;10.35;6.72;;;;;;;6.24;68.87;98520.46;1752092;80;21300;-83
2021/11/30 11:31:50;;;;;;;8.70;6.62;;;;;;;6.17;68.77;98523.64;1756373;80;21573;-84
2021/11/30 11:34:55;;;;;;;10.18;6.72;;;;;;;6.17;68.44;98525.52;1754688;80;21207;-82
2021/11/30 11:38:00;;;;;;;11.80;6.90;;;;;;;6.17;68.52;98519.56;1707759;82;21315;-83
2021/11/30 11:41:09;;;;;;;10.28;6.87;;;;;;;6.19;68.89;98509.86;1779801;79;21172;-82
2021/11/30 11:44:14;;;;;;;13.50;6.72;;;;;;;6.20;69.19;98500.67;1779933;79;21172;-82
2021/11/30 11:47:23;;;;;;;10.68;7.53;;;;;;;6.22;69.04;98502.18;1776869;79;21165;-81
2021/11/30 11:50:28;;;;;;;13.85;8.93;;;;;;;6.18;69.24;98508.19;1761262;79;21907;-84
2021/11/30 11:53:45;;;;;;;14.25;9.43;;;;;;;6.12;69.28;98507.08;1747026;80;21152;-82
2021/11/30 11:56:50;;;;;;;11.28;7.70;;;;;;;6.05;69.36;98499.37;1749010;80;21267;-85
2021/11/30 11:59:48;;;;;;;11.48;7.40;;;;;;;5.98;69.61;98493.03;1731156;81;21332;-83
2021/11/30 12:02:42;;;;;;;12.18;7.03;;;;;;;5.90;70.06;98496.14;1758186;80;21625;-83
2021/11/30 12:05:54;;;;;;;11.70;7.83;;;;;;;5.84;69.93;98488.77;1763196;80;21165;-83
2021/11/30 12:09:33;;;;;;;17.52;9.48;;;;;;;5.79;69.88;98487.66;1757423;80;21899;-83
2021/11/30 12:12:39;;;;;;;12.75;8.63;;;;;;;5.72;70.12;98485.38;1708916;82;21537;-85
2021/11/30 12:16:15;;;;;;;12.50;7.90;;;;;;;5.64;70.75;98488.50;1745886;80;21321;-83
2021/11/30 12:19:34;;;;;;;11.28;8.08;;;;;;;5.62;70.74;98485.15;1725857;81;21998;-80
2021/11/30 12:23:06;;;;;;;9.83;7.22;;;;;;;5.61;71.03;98479.92;1745160;81;21205;-78
2021/11/30 12:26:45;;;;;;;15.38;7.62;;;;;;;5.62;71.44;98482.95;1725332;81;21180;-79
2021/11/30 12:29:52;;;;;;;12.37;8.18;;;;;;;5.60;71.48;98486.39;1751452;80;21200;-80
2021/11/30 12:33:02;;;;;;;12.00;7.90;;;;;;;5.59;71.58;98488.23;1751554;81;21273;-80
2021/11/30 12:36:15;;;;;;;11.80;8.45;;;;;;;5.55;71.82;98490.15;1747507;81;21460;-80
2021/11/30 12:39:21;;;;;;;16.32;7.70;;;;;;;5.47;71.51;98482.14;1747454;81;21287;-79
2021/11/30 12:42:28;;;;;;;16.25;8.95;;;;;;;5.43;71.31;98479.47;1743064;80;21276;-79
2021/11/30 12:45:54;;;;;;;13.75;8.90;;;;;;;5.43;71.48;98472.69;1742319;80;21214;-79
2021/11/30 12:48:59;;;;;;;17.17;7.90;;;;;;;5.41;71.79;98460.69;1718406;81;21325;-79
2021/11/30 12:52:27;;;;;;;14.58;9.78;;;;;;;5.36;72.24;98453.12;1722770;81;21262;-80
2021/11/30 12:55:31;;;;;;;16.12;10.30;;;;;;;5.30;72.72;98453.02;1727438;81;21999;-80
2021/11/30 12:58:55;;;;;;;15.83;9.25;;;;;;;5.27;73.31;98458.80;1728862;81;22240;-79
2021/11/30 13:02:38;;;;;;;16.10;9.70;;;;;;;5.24;73.47;98451.90;1715280;81;21185;-79
2021/11/30 13:05:44;;;;;;;14.63;8.93;;;;;;;5.24;73.74;98443.77;1721501;81;21567;-79
2021/11/30 13:09:11;;;;;;;14.45;9.55;;;;;;;5.22;74.17;98436.34;1749445;80;21326;-79
2021/11/30 13:12:20;;;;;;;16.42;10.13;;;;;;;5.18;74.23;98438.27;1751947;80;21348;-86
2021/11/30 13:15:26;;;;;;;23.55;10.05;;;;;;;5.11;74.63;98436.80;1765938;80;21256;-77
2021/11/30 13:18:37;;;;;;;16.45;9.23;;;;;;;5.06;75.03;98442.78;1759795;80;21547;-78
2021/11/30 13:21:49;;;;;;;18.65;10.43;;;;;;;5.07;75.20;98439.55;1755495;80;21829;-78
2021/11/30 13:25:04;;;;;;;14.65;9.85;;;;;;;5.07;75.28;98434.12;1753401;80;21947;-79
2021/11/30 13:28:14;;;;;;;15.20;10.10;;;;;;;5.02;75.79;98431.14;1750610;80;21351;-85
2021/11/30 13:31:19;;;;;;;17.02;9.85;;;;;;;4.94;76.25;98427.16;1716450;82;21314;-78
2021/11/30 13:34:26;;;;;;;17.85;9.25;;;;;;;4.86;76.91;98424.88;1750467;80;21778;-78
2021/11/30 13:37:32;;;;;;;15.50;10.72;;;;;;;4.82;77.57;98415.44;1735364;81;21825;-85
2021/11/30 13:40:50;;;;;;;15.93;8.95;;;;;;;4.81;78.13;98411.06;1777334;79;21754;-78
2021/11/30 13:43:59;;;;;;;16.15;9.83;;;;;;;4.76;78.19;98405.36;1772493;80;21907;-77
2021/11/30 13:47:04;;;;;;;15.93;9.40;;;;;;;4.72;78.03;98406.75;1777333;79;21703;-78
2021/11/30 13:50:08;;;;;;;12.33;8.70;;;;;;;4.66;77.71;98401.22;1768693;79;21279;-78
2021/11/30 13:53:21;;;;;;;18.75;8.88;;;;;;;4.64;77.64;98397.87;1788394;79;21323;-78
2021/11/30 13:57:05;;;;;;;15.83;9.55;;;;;;;4.64;77.75;98387.88;1775095;79;21286;-77
2021/11/30 14:00:14;;;;;;;13.20;8.75;;;;;;;4.67;77.96;98383.45;1779392;78;21275;-78
2021/11/30 14:03:14;;;;;;;13.38;8.90;;;;;;;4.68;77.60;98381.06;1782608;79;21959;-85
2021/11/30 14:06:39;;;;;;;12.65;8.43;;;;;;;4.67;77.46;98398.34;1777786;79;21338;-78
2021/11/30 14:09:58;;;;;;;13.30;8.70;;;;;;;4.66;77.55;98405.28;1777392;80;21689;-84
2021/11/30 14:13:07;;;;;;;11.73;7.78;;;;;;;4.64;77.55;98410.05;1788149;79;21761;-85
2021/11/30 14:16:12;;;;;;;18.65;8.10;;;;;;;4.60;77.71;98410.92;1779722;80;21311;-78
2021/11/30 14:19:18;;;;;;;11.70;8.18;;;;;;;4.56;77.91;98414.53;1784053;79;21346;-78
2021/11/30 14:22:28;;;;;;;12.93;9.20;;;;;;;4.57;78.24;98412.16;1763319;79;21362;-78
2021/11/30 14:25:37;;;;;;;;;;;;;;;4.58;78.24;98411.64;1809527;79;21208;-79
2021/11/30 14:28:41;;;;;;;10.35;7.72;;;;;;;4.55;78.20;98407.94;1766482;79;20256;-79
2021/11/30 14:32:10;;;;;;;12.55;7.90;;;;;;;4.51;78.46;98409.32;1765635;79;21698;-85
2021/11/30 14:35:18;;;;;;;11.83;7.70;;;;;;;4.50;78.67;98423.89;1795721;79;21910;-86
2021/11/30 14:38:47;;;;;;;13.03;7.17;;;;;;;4.44;78.57;98425.98;1792430;79;21275;-85
2021/11/30 14:41:45;;;;;;;17.27;8.48;;;;;;;4.42;78.69;98415.32;1783827;79;21259;-80
2021/11/30 14:44:50;;;;;;;11.45;7.37;;;;;;;4.42;78.31;98415.32;1794126;79;21204;-79
2021/11/30 14:48:03;;;;;;;9.98;7.10;;;;;;;4.44;78.46;98392.14;1775415;79;21200;-78
2021/11/30 14:51:16;;;;;;;14.23;7.10;;;;;;;4.43;77.63;98390.47;1780041;80;21279;-80
2021/11/30 14:54:21;;;;;;;9.33;6.55;;;;;;;4.40;77.44;98383.55;1780133;80;21346;-85
2021/11/30 14:57:34;;;;;;;11.20;6.85;;;;;;;4.36;77.38;98374.11;1760536;80;21164;-81
2021/11/30 15:00:43;;;;;;;13.95;7.58;;;;;;;4.31;76.94;98371.95;1780399;80;21316;-85
2021/11/30 15:03:52;;;;;;;11.50;7.28;;;;;;;4.17;76.67;98367.34;1781274;80;21302;-79
2021/11/30 15:06:57;;;;;;;14.25;7.62;;;;;;;4.17;76.67;98367.34;1781171;80;21295;-85